Melody — 3FBS7 — position and weather

sailwx.info

Track history (hours):
 
Tides and Currents Weather Stations Pressure Air Temp Water Temp Dewpoint Dewpoint Depression Visibility Wind Speed Wind Dir Waves Ship Positions

Melody

Operator: Mediterranean Shipping Company

Last reported at 2019-May-08 10:32 UTC. Time now 2019-May-20 17:09 UTC.
Position N 22°22' W 092°28'.
Warning: this ship's position is 12 days out of date.

Length 225 m; draft 11.3 m.

Type: Tanker. MMSI: 371669000.

Date/timePositionNaut miles runAvg speedWind from/ knotsBaromVisibWave heightAir tempDewpointWater temp
2019-May-08 10:32N 22°22' W 092°28'4216.7
2019-May-08 08:02N 22°34' W 091°45'016.0
2019-May-08 08:00N 22°34' W 091°45'  
2019-May-01 17:55N 28°58' W 094°25'614.0
2019-May-01 17:30N 29°04' W 094°26'612.7
2019-May-01 17:00N 29°10' W 094°28'713.3
2019-May-01 16:31N 29°15' W 094°34'611.5
2019-May-01 16:01N 29°19' W 094°38'612.6
2019-May-01 15:30N 29°21' W 094°45'611.8
2019-May-01 15:00N 29°25' W 094°50'612.1
2019-May-01 14:31N 29°30' W 094°53'611.6
2019-May-01 14:01N 29°35' W 094°56'611.2
2019-May-01 13:30N 29°40' W 094°59'4 8.1
2019-May-01 13:01N 29°44' W 095°02'4 7.5
2019-May-01 12:30N 29°46' W 095°05'3 0.1
2019-Apr-29 21:39N 29°44' W 095°07'0 1.3
2019-Apr-29 21:29N 29°44' W 095°07'2 4.6
2019-Apr-29 21:01N 29°46' W 095°05'4 8.0
2019-Apr-29 20:31N 29°44' W 095°01'4 8.9
2019-Apr-29 20:01N 29°40' W 094°59'612.3
2019-Apr-29 19:31N 29°34' W 094°56'612.9
2019-Apr-29 19:01N 29°29' W 094°52'713.8
2019-Apr-29 18:30N 29°23' W 094°48'713.7
2019-Apr-29 18:00N 29°20' W 094°41'611.9
2019-Apr-29 17:29N 29°17' W 094°35'1 1.7
2019-Apr-29 17:00N 29°17' W 094°34'5 6.1
2019-Apr-29 16:16N 29°12' W 094°34'0 0.3
2019-Apr-29 15:55N 29°12' W 094°34'0 0.0
2019-Apr-29 14:19N 29°12' W 094°34'0 0.0
2019-Apr-29 13:37N 29°12' W 094°34'0 0.0
2019-Apr-29 13:22N 29°12' W 094°34'0 0.2
2019-Apr-29 12:31N 29°12' W 094°34'0 2.7
2019-Apr-29 12:29N 29°12' W 094°34'3 7.2
2019-Apr-29 12:00N 29°09' W 094°32'712.4
2019-Apr-29 11:28N 29°06' W 094°26'1511.5
2019-Apr-29 10:10N 28°51' W 094°25'312.2
2019-Apr-29 09:58N 28°48' W 094°25'911.9
2019-Apr-29 09:10N 28°39' W 094°25'211.7
2019-Apr-29 09:00N 28°37' W 094°25'612.2
2019-Apr-29 08:29N 28°31' W 094°25'612.3
2019-Apr-29 08:00N 28°25' W 094°25'812.3
2019-Apr-29 07:23N 28°17' W 094°25'612.3
2019-Apr-29 06:53N 28°11' W 094°25'612.4
2019-Apr-29 06:25N 28°05' W 094°25'1313.6
2019-Apr-29 05:29N 27°53' W 094°25'  
Track history (hours):
 
Tides and Currents Weather Stations Pressure Air Temp Water Temp Dewpoint Dewpoint Depression Visibility Wind Speed Wind Dir Waves Ship Positions

Melody

Operator: Mediterranean Shipping Company

Last reported at 2019-May-08 10:32 UTC. Time now 2019-May-20 17:09 UTC.
Position N 22°22' W 092°28'.
Warning: this ship's position is 12 days out of date.

Length 225 m; draft 11.3 m.

Type: Tanker. MMSI: 371669000.

Date/timePositionNaut miles runAvg speedWind from/ knotsBaromVisibWave heightAir tempDewpointWater temp
2019-May-08 10:32N 22°22' W 092°28'4216.7
2019-May-08 08:02N 22°34' W 091°45'016.0
2019-May-08 08:00N 22°34' W 091°45'  
2019-May-01 17:55N 28°58' W 094°25'614.0
2019-May-01 17:30N 29°04' W 094°26'612.7
2019-May-01 17:00N 29°10' W 094°28'713.3
2019-May-01 16:31N 29°15' W 094°34'611.5
2019-May-01 16:01N 29°19' W 094°38'612.6
2019-May-01 15:30N 29°21' W 094°45'611.8
2019-May-01 15:00N 29°25' W 094°50'612.1
2019-May-01 14:31N 29°30' W 094°53'611.6
2019-May-01 14:01N 29°35' W 094°56'611.2
2019-May-01 13:30N 29°40' W 094°59'4 8.1
2019-May-01 13:01N 29°44' W 095°02'4 7.5
2019-May-01 12:30N 29°46' W 095°05'3 0.1
2019-Apr-29 21:39N 29°44' W 095°07'0 1.3
2019-Apr-29 21:29N 29°44' W 095°07'2 4.6
2019-Apr-29 21:01N 29°46' W 095°05'4 8.0
2019-Apr-29 20:31N 29°44' W 095°01'4 8.9
2019-Apr-29 20:01N 29°40' W 094°59'612.3
2019-Apr-29 19:31N 29°34' W 094°56'612.9
2019-Apr-29 19:01N 29°29' W 094°52'713.8
2019-Apr-29 18:30N 29°23' W 094°48'713.7
2019-Apr-29 18:00N 29°20' W 094°41'611.9
2019-Apr-29 17:29N 29°17' W 094°35'1 1.7
2019-Apr-29 17:00N 29°17' W 094°34'5 6.1
2019-Apr-29 16:16N 29°12' W 094°34'0 0.3
2019-Apr-29 15:55N 29°12' W 094°34'0 0.0
2019-Apr-29 14:19N 29°12' W 094°34'0 0.0
2019-Apr-29 13:37N 29°12' W 094°34'0 0.0
2019-Apr-29 13:22N 29°12' W 094°34'0 0.2
2019-Apr-29 12:31N 29°12' W 094°34'0 2.7
2019-Apr-29 12:29N 29°12' W 094°34'3 7.2
2019-Apr-29 12:00N 29°09' W 094°32'712.4
2019-Apr-29 11:28N 29°06' W 094°26'1511.5
2019-Apr-29 10:10N 28°51' W 094°25'312.2
2019-Apr-29 09:58N 28°48' W 094°25'911.9
2019-Apr-29 09:10N 28°39' W 094°25'211.7
2019-Apr-29 09:00N 28°37' W 094°25'612.2
2019-Apr-29 08:29N 28°31' W 094°25'612.3
2019-Apr-29 08:00N 28°25' W 094°25'812.3
2019-Apr-29 07:23N 28°17' W 094°25'612.3
2019-Apr-29 06:53N 28°11' W 094°25'612.4
2019-Apr-29 06:25N 28°05' W 094°25'1313.6
2019-Apr-29 05:29N 27°53' W 094°25'  

Dump ship's entire track history